Licenciado Benito Juarez International Airport
MMMX : now visible

Airfield :











YOU CAN JOIN US ON...

 
LOGIN :

Register | Disclaimer

   EN    FR    IT 

 









Legend :    VFR   Marginal VFR   IFR   Intensive IFR   Very Intensive IFR
Visi :
Ceiling :
>= 8 km
>= 3000ft
5 to 8 km
1000 to 3000 ft
1500m to 5 km
500 to 1000 ft
800 to 1500m
200 to 500 ft
< 800m
< 200 ft
Symbols :   Thunderstorms  Fog  Heavy snow  Heavy precipitations  Wind > 20 kt






- Airport Elevation : 7316 ft
- IATA code : MEX


MMMX - Licenciado Benito Juarez International

CURRENT METAR :
  • 262258Z 04010G20KT 10SM SCT025CB SCT100 BKN250 20/05 A3023 NOSIG RMK 8/363 HZY PCPN NE OCNL DROPS

EXPIRED METARs :
  • 262243Z 08010KT 10SM SCT025TCU SCT100 BKN250 20/04 A3023 NOSIG RMK 8/238 HZY DSNT PCPN NE
  • 262150Z 23004KT 10SM SCT030 SCT100 BKN250 22/02 A3023 NOSIG RMK 8/238 HZY TCU 1ST QUAD
  • 262052Z 02005KT 10SM SCT030 SCT100 BKN250 22/02 A3024 NOSIG RMK SLP085 57029 905 8/238 HZY
  • 261945Z 26006KT 10SM SCT030 SCT250 22/02 A3028 NOSIG RMK 8/109 HZY

TAF TAF MMMX
Valid from the 26 at 18:00 until the 28 at 00:00 UTC


261645Z 2618/2724 20012KT P6SM BKN030 BKN120 TX22/2620Z TN10/2712Z
BECMG 2702/2703 00000KT
FM271400 00000KT 5SM HZ SCT100 BKN250
FM271800 24010KT P6SM BKN250



MET'MAP, your aeronautical weather chart ! - Copyright ORBIFLY December 2007 - Disclaimer

ORBIFLY MET'MAP TEAM :

Programming & Development : Alexandra Zaïnal
Concept & original design : Baudouin d'Aumeries
Assistance for programming : Marc-Olivier Méhu
Technical & hardware support : Manuel Goepfert

Contact : metmap@orbifly.com




SOURCES & CREDITS :

   NOAA       Earth
Advisory